sensor_id;sensor_type;location;lat;lon;timestamp;P1;durP1;ratioP1;P2;durP2;ratioP2
3667;SDS011;24099;47.102;15.440;2023-04-25T00:01:18;0.70;;;0.70;;
3667;SDS011;24099;47.102;15.440;2023-04-25T00:03:49;0.65;;;0.60;;
3667;SDS011;24099;47.102;15.440;2023-04-25T00:06:17;0.93;;;0.65;;
3667;SDS011;24099;47.102;15.440;2023-04-25T00:08:47;0.80;;;0.65;;
3667;SDS011;24099;47.102;15.440;2023-04-25T00:11:15;0.77;;;0.77;;
3667;SDS011;24099;47.102;15.440;2023-04-25T00:13:45;0.55;;;0.55;;
3667;SDS011;24099;47.102;15.440;2023-04-25T00:16:15;0.68;;;0.68;;
3667;SDS011;24099;47.102;15.440;2023-04-25T00:18:43;0.55;;;0.55;;
3667;SDS011;24099;47.102;15.440;2023-04-25T00:21:18;0.63;;;0.63;;
3667;SDS011;24099;47.102;15.440;2023-04-25T00:23:47;1.10;;;0.85;;
3667;SDS011;24099;47.102;15.440;2023-04-25T00:26:15;0.63;;;0.63;;
3667;SDS011;24099;47.102;15.440;2023-04-25T00:28:46;0.75;;;0.75;;
3667;SDS011;24099;47.102;15.440;2023-04-25T00:31:14;0.80;;;0.80;;
3667;SDS011;24099;47.102;15.440;2023-04-25T00:33:42;0.85;;;0.60;;
3667;SDS011;24099;47.102;15.440;2023-04-25T00:36:10;1.83;;;1.13;;
3667;SDS011;24099;47.102;15.440;2023-04-25T00:38:40;0.80;;;0.80;;
3667;SDS011;24099;47.102;15.440;2023-04-25T00:41:07;0.63;;;0.63;;
3667;SDS011;24099;47.102;15.440;2023-04-25T00:43:36;0.63;;;0.63;;
3667;SDS011;24099;47.102;15.440;2023-04-25T00:46:04;0.52;;;0.52;;
3667;SDS011;24099;47.102;15.440;2023-04-25T00:48:32;0.80;;;0.70;;
3667;SDS011;24099;47.102;15.440;2023-04-25T00:51:00;0.77;;;0.77;;
3667;SDS011;24099;47.102;15.440;2023-04-25T00:53:31;0.90;;;0.90;;
3667;SDS011;24099;47.102;15.440;2023-04-25T00:56:00;1.70;;;0.77;;
3667;SDS011;24099;47.102;15.440;2023-04-25T00:58:29;3.38;;;0.70;;
3667;SDS011;24099;47.102;15.440;2023-04-25T01:00:57;0.80;;;0.75;;
3667;SDS011;24099;47.102;15.440;2023-04-25T01:03:27;1.70;;;0.80;;
3667;SDS011;24099;47.102;15.440;2023-04-25T01:05:56;0.52;;;0.52;;
3667;SDS011;24099;47.102;15.440;2023-04-25T01:08:25;0.50;;;0.50;;
3667;SDS011;24099;47.102;15.440;2023-04-25T01:10:52;0.52;;;0.52;;
3667;SDS011;24099;47.102;15.440;2023-04-25T01:13:21;0.50;;;0.50;;
3667;SDS011;24099;47.102;15.440;2023-04-25T01:15:50;1.00;;;0.98;;
3667;SDS011;24099;47.102;15.440;2023-04-25T01:18:18;0.63;;;0.63;;
3667;SDS011;24099;47.102;15.440;2023-04-25T01:20:46;0.80;;;0.80;;
3667;SDS011;24099;47.102;15.440;2023-04-25T01:23:19;0.75;;;0.75;;
3667;SDS011;24099;47.102;15.440;2023-04-25T01:25:47;0.70;;;0.70;;
3667;SDS011;24099;47.102;15.440;2023-04-25T01:28:16;1.17;;;0.95;;
3667;SDS011;24099;47.102;15.440;2023-04-25T01:30:44;0.75;;;0.73;;
3667;SDS011;24099;47.102;15.440;2023-04-25T01:33:13;0.82;;;0.82;;
3667;SDS011;24099;47.102;15.440;2023-04-25T01:35:42;0.50;;;0.50;;
3667;SDS011;24099;47.102;15.440;2023-04-25T01:38:11;0.60;;;0.60;;
3667;SDS011;24099;47.102;15.440;2023-04-25T01:40:41;2.83;;;1.20;;
3667;SDS011;24099;47.102;15.440;2023-04-25T01:43:11;1.15;;;0.82;;
3667;SDS011;24099;47.102;15.440;2023-04-25T01:45:40;0.80;;;0.75;;
3667;SDS011;24099;47.102;15.440;2023-04-25T01:48:10;1.75;;;0.98;;
3667;SDS011;24099;47.102;15.440;2023-04-25T01:50:40;0.65;;;0.50;;
3667;SDS011;24099;47.102;15.440;2023-04-25T01:53:08;0.85;;;0.75;;
3667;SDS011;24099;47.102;15.440;2023-04-25T01:55:37;6.10;;;0.75;;
3667;SDS011;24099;47.102;15.440;2023-04-25T01:58:10;11.73;;;0.90;;
3667;SDS011;24099;47.102;15.440;2023-04-25T02:01:10;1.13;;;0.95;;
3667;SDS011;24099;47.102;15.440;2023-04-25T02:03:44;0.50;;;0.50;;
3667;SDS011;24099;47.102;15.440;2023-04-25T02:06:21;0.50;;;0.50;;
3667;SDS011;24099;47.102;15.440;2023-04-25T02:08:52;1.05;;;0.82;;
3667;SDS011;24099;47.102;15.440;2023-04-25T02:11:19;1.05;;;0.90;;
3667;SDS011;24099;47.102;15.440;2023-04-25T02:14:12;0.65;;;0.65;;
3667;SDS011;24099;47.102;15.440;2023-04-25T02:16:50;0.40;;;0.40;;
3667;SDS011;24099;47.102;15.440;2023-04-25T02:19:18;0.85;;;0.60;;
3667;SDS011;24099;47.102;15.440;2023-04-25T02:21:46;0.65;;;0.65;;
3667;SDS011;24099;47.102;15.440;2023-04-25T02:24:14;0.60;;;0.60;;
3667;SDS011;24099;47.102;15.440;2023-04-25T02:26:42;0.47;;;0.47;;
3667;SDS011;24099;47.102;15.440;2023-04-25T02:29:13;0.60;;;0.60;;
3667;SDS011;24099;47.102;15.440;2023-04-25T02:31:41;0.50;;;0.50;;
3667;SDS011;24099;47.102;15.440;2023-04-25T02:34:09;0.50;;;0.50;;
3667;SDS011;24099;47.102;15.440;2023-04-25T02:36:38;0.95;;;0.50;;
3667;SDS011;24099;47.102;15.440;2023-04-25T02:39:06;0.40;;;0.40;;
3667;SDS011;24099;47.102;15.440;2023-04-25T02:41:33;0.50;;;0.50;;
3667;SDS011;24099;47.102;15.440;2023-04-25T02:44:01;0.60;;;0.50;;
3667;SDS011;24099;47.102;15.440;2023-04-25T02:46:30;0.40;;;0.40;;
3667;SDS011;24099;47.102;15.440;2023-04-25T02:48:58;0.40;;;0.40;;
3667;SDS011;24099;47.102;15.440;2023-04-25T02:51:26;0.93;;;0.47;;
3667;SDS011;24099;47.102;15.440;2023-04-25T02:53:55;0.40;;;0.40;;
3667;SDS011;24099;47.102;15.440;2023-04-25T02:56:23;0.40;;;0.40;;
3667;SDS011;24099;47.102;15.440;2023-04-25T02:58:53;0.50;;;0.50;;
3667;SDS011;24099;47.102;15.440;2023-04-25T03:01:21;0.40;;;0.40;;
3667;SDS011;24099;47.102;15.440;2023-04-25T03:03:50;0.40;;;0.40;;
3667;SDS011;24099;47.102;15.440;2023-04-25T03:06:18;0.40;;;0.40;;
3667;SDS011;24099;47.102;15.440;2023-04-25T03:08:46;0.40;;;0.40;;
3667;SDS011;24099;47.102;15.440;2023-04-25T03:11:14;0.63;;;0.63;;
3667;SDS011;24099;47.102;15.440;2023-04-25T03:13:43;1.15;;;0.77;;
3667;SDS011;24099;47.102;15.440;2023-04-25T03:16:11;2.90;;;0.55;;
3667;SDS011;24099;47.102;15.440;2023-04-25T03:18:42;2.75;;;0.60;;
3667;SDS011;24099;47.102;15.440;2023-04-25T03:21:12;0.60;;;0.60;;
3667;SDS011;24099;47.102;15.440;2023-04-25T03:23:40;0.50;;;0.50;;
3667;SDS011;24099;47.102;15.440;2023-04-25T03:26:08;0.55;;;0.55;;
3667;SDS011;24099;47.102;15.440;2023-04-25T03:28:37;3.42;;;0.45;;
3667;SDS011;24099;47.102;15.440;2023-04-25T03:31:06;2.00;;;0.70;;
3667;SDS011;24099;47.102;15.440;2023-04-25T03:33:34;0.60;;;0.60;;
3667;SDS011;24099;47.102;15.440;2023-04-25T03:36:01;1.05;;;0.80;;
3667;SDS011;24099;47.102;15.440;2023-04-25T03:38:31;0.60;;;0.60;;
3667;SDS011;24099;47.102;15.440;2023-04-25T03:41:00;1.10;;;0.90;;
3667;SDS011;24099;47.102;15.440;2023-04-25T03:43:41;1.60;;;0.93;;
3667;SDS011;24099;47.102;15.440;2023-04-25T03:46:12;1.35;;;1.05;;
3667;SDS011;24099;47.102;15.440;2023-04-25T03:48:40;1.10;;;0.80;;
3667;SDS011;24099;47.102;15.440;2023-04-25T03:51:11;0.52;;;0.52;;
3667;SDS011;24099;47.102;15.440;2023-04-25T03:53:43;0.82;;;0.65;;
3667;SDS011;24099;47.102;15.440;2023-04-25T03:56:14;0.80;;;0.80;;
3667;SDS011;24099;47.102;15.440;2023-04-25T03:58:44;1.27;;;0.90;;
3667;SDS011;24099;47.102;15.440;2023-04-25T04:01:14;0.80;;;0.80;;
3667;SDS011;24099;47.102;15.440;2023-04-25T04:03:42;0.60;;;0.60;;
3667;SDS011;24099;47.102;15.440;2023-04-25T04:06:10;1.45;;;0.68;;
3667;SDS011;24099;47.102;15.440;2023-04-25T04:08:41;0.50;;;0.50;;
3667;SDS011;24099;47.102;15.440;2023-04-25T04:11:11;4.22;;;1.00;;
3667;SDS011;24099;47.102;15.440;2023-04-25T04:13:39;0.55;;;0.55;;
3667;SDS011;24099;47.102;15.440;2023-04-25T04:16:07;0.88;;;0.75;;
3667;SDS011;24099;47.102;15.440;2023-04-25T04:18:35;3.22;;;0.85;;
3667;SDS011;24099;47.102;15.440;2023-04-25T04:21:03;4.85;;;1.02;;
3667;SDS011;24099;47.102;15.440;2023-04-25T04:23:34;0.63;;;0.55;;
3667;SDS011;24099;47.102;15.440;2023-04-25T04:26:04;1.02;;;0.60;;
3667;SDS011;24099;47.102;15.440;2023-04-25T04:28:50;0.55;;;0.55;;
3667;SDS011;24099;47.102;15.440;2023-04-25T04:31:33;0.60;;;0.60;;
3667;SDS011;24099;47.102;15.440;2023-04-25T04:34:02;1.60;;;0.52;;
3667;SDS011;24099;47.102;15.440;2023-04-25T04:36:30;0.70;;;0.70;;
3667;SDS011;24099;47.102;15.440;2023-04-25T04:38:57;0.65;;;0.65;;
3667;SDS011;24099;47.102;15.440;2023-04-25T04:41:38;0.60;;;0.60;;
3667;SDS011;24099;47.102;15.440;2023-04-25T04:44:32;0.70;;;0.70;;
3667;SDS011;24099;47.102;15.440;2023-04-25T04:47:19;0.50;;;0.50;;
3667;SDS011;24099;47.102;15.440;2023-04-25T04:50:12;0.60;;;0.50;;
3667;SDS011;24099;47.102;15.440;2023-04-25T04:53:01;1.05;;;0.60;;
3667;SDS011;24099;47.102;15.440;2023-04-25T04:55:55;0.43;;;0.43;;
3667;SDS011;24099;47.102;15.440;2023-04-25T04:58:50;0.65;;;0.63;;
3667;SDS011;24099;47.102;15.440;2023-04-25T05:01:38;0.43;;;0.40;;
3667;SDS011;24099;47.102;15.440;2023-04-25T05:04:18;0.52;;;0.52;;
3667;SDS011;24099;47.102;15.440;2023-04-25T05:06:59;0.40;;;0.40;;
3667;SDS011;24099;47.102;15.440;2023-04-25T05:09:47;0.80;;;0.70;;
3667;SDS011;24099;47.102;15.440;2023-04-25T05:12:50;0.63;;;0.63;;
3667;SDS011;24099;47.102;15.440;2023-04-25T05:15:43;1.83;;;0.88;;
3667;SDS011;24099;47.102;15.440;2023-04-25T05:18:49;0.68;;;0.57;;
3667;SDS011;24099;47.102;15.440;2023-04-25T05:21:30;0.98;;;0.80;;
3667;SDS011;24099;47.102;15.440;2023-04-25T05:24:24;0.80;;;0.80;;
3667;SDS011;24099;47.102;15.440;2023-04-25T05:27:04;0.43;;;0.43;;
3667;SDS011;24099;47.102;15.440;2023-04-25T05:29:32;1.02;;;0.70;;
3667;SDS011;24099;47.102;15.440;2023-04-25T05:32:15;1.27;;;0.65;;
3667;SDS011;24099;47.102;15.440;2023-04-25T05:34:44;1.15;;;0.70;;
3667;SDS011;24099;47.102;15.440;2023-04-25T05:37:27;0.50;;;0.50;;
3667;SDS011;24099;47.102;15.440;2023-04-25T05:40:05;1.20;;;0.70;;
3667;SDS011;24099;47.102;15.440;2023-04-25T05:42:53;1.10;;;0.80;;
3667;SDS011;24099;47.102;15.440;2023-04-25T05:45:27;0.85;;;0.85;;
3667;SDS011;24099;47.102;15.440;2023-04-25T05:48:32;2.70;;;0.88;;
3667;SDS011;24099;47.102;15.440;2023-04-25T05:51:26;0.60;;;0.60;;
3667;SDS011;24099;47.102;15.440;2023-04-25T05:54:32;2.72;;;1.10;;
3667;SDS011;24099;47.102;15.440;2023-04-25T05:57:00;0.75;;;0.75;;
3667;SDS011;24099;47.102;15.440;2023-04-25T05:59:28;0.80;;;0.80;;
3667;SDS011;24099;47.102;15.440;2023-04-25T06:01:56;0.77;;;0.77;;
3667;SDS011;24099;47.102;15.440;2023-04-25T06:04:27;0.90;;;0.90;;
3667;SDS011;24099;47.102;15.440;2023-04-25T06:06:55;0.88;;;0.82;;
3667;SDS011;24099;47.102;15.440;2023-04-25T06:09:23;0.77;;;0.60;;
3667;SDS011;24099;47.102;15.440;2023-04-25T06:11:53;0.73;;;0.73;;
3667;SDS011;24099;47.102;15.440;2023-04-25T06:14:20;1.70;;;0.68;;
3667;SDS011;24099;47.102;15.440;2023-04-25T06:16:49;8.73;;;0.90;;
3667;SDS011;24099;47.102;15.440;2023-04-25T06:19:17;2.70;;;0.80;;
3667;SDS011;24099;47.102;15.440;2023-04-25T06:21:46;1.08;;;1.00;;
3667;SDS011;24099;47.102;15.440;2023-04-25T06:24:14;0.70;;;0.70;;
3667;SDS011;24099;47.102;15.440;2023-04-25T06:26:43;1.00;;;0.90;;
3667;SDS011;24099;47.102;15.440;2023-04-25T06:29:13;6.72;;;0.90;;
3667;SDS011;24099;47.102;15.440;2023-04-25T06:31:41;0.70;;;0.70;;
3667;SDS011;24099;47.102;15.440;2023-04-25T06:34:09;0.70;;;0.70;;
3667;SDS011;24099;47.102;15.440;2023-04-25T06:36:39;1.15;;;0.55;;
3667;SDS011;24099;47.102;15.440;2023-04-25T06:39:11;3.65;;;0.90;;
3667;SDS011;24099;47.102;15.440;2023-04-25T06:41:39;0.93;;;0.80;;
3667;SDS011;24099;47.102;15.440;2023-04-25T06:44:14;0.70;;;0.70;;
3667;SDS011;24099;47.102;15.440;2023-04-25T06:49:19;0.95;;;0.70;;
3667;SDS011;24099;47.102;15.440;2023-04-25T06:51:47;2.00;;;1.13;;
3667;SDS011;24099;47.102;15.440;2023-04-25T06:54:16;0.95;;;0.88;;
3667;SDS011;24099;47.102;15.440;2023-04-25T06:56:56;2.95;;;1.20;;
3667;SDS011;24099;47.102;15.440;2023-04-25T06:59:25;1.33;;;0.98;;
3667;SDS011;24099;47.102;15.440;2023-04-25T07:01:53;3.15;;;1.40;;
3667;SDS011;24099;47.102;15.440;2023-04-25T07:04:24;1.05;;;0.90;;
3667;SDS011;24099;47.102;15.440;2023-04-25T07:06:55;15.00;;;1.70;;
3667;SDS011;24099;47.102;15.440;2023-04-25T07:09:32;3.00;;;0.90;;
3667;SDS011;24099;47.102;15.440;2023-04-25T07:12:00;1.15;;;1.05;;
3667;SDS011;24099;47.102;15.440;2023-04-25T07:14:28;2.33;;;1.25;;
3667;SDS011;24099;47.102;15.440;2023-04-25T07:16:57;1.05;;;1.00;;
3667;SDS011;24099;47.102;15.440;2023-04-25T07:19:26;1.92;;;1.25;;
3667;SDS011;24099;47.102;15.440;2023-04-25T07:21:58;1.10;;;1.00;;
3667;SDS011;24099;47.102;15.440;2023-04-25T07:24:26;1.30;;;1.20;;
3667;SDS011;24099;47.102;15.440;2023-04-25T07:26:56;1.48;;;1.30;;
3667;SDS011;24099;47.102;15.440;2023-04-25T07:29:45;1.65;;;1.50;;
3667;SDS011;24099;47.102;15.440;2023-04-25T07:32:13;3.47;;;1.58;;
3667;SDS011;24099;47.102;15.440;2023-04-25T07:34:42;3.38;;;1.27;;
3667;SDS011;24099;47.102;15.440;2023-04-25T07:37:13;1.10;;;1.05;;
3667;SDS011;24099;47.102;15.440;2023-04-25T07:40:02;0.40;;;0.40;;
3667;SDS011;24099;47.102;15.440;2023-04-25T07:42:32;0.80;;;0.70;;
3667;SDS011;24099;47.102;15.440;2023-04-25T07:45:00;0.63;;;0.63;;
3667;SDS011;24099;47.102;15.440;2023-04-25T07:47:29;0.73;;;0.50;;
3667;SDS011;24099;47.102;15.440;2023-04-25T07:49:57;2.00;;;0.90;;
3667;SDS011;24099;47.102;15.440;2023-04-25T07:52:26;0.55;;;0.50;;
3667;SDS011;24099;47.102;15.440;2023-04-25T07:55:01;0.60;;;0.60;;
3667;SDS011;24099;47.102;15.440;2023-04-25T07:57:41;0.60;;;0.60;;
3667;SDS011;24099;47.102;15.440;2023-04-25T08:00:10;0.90;;;0.82;;
3667;SDS011;24099;47.102;15.440;2023-04-25T08:02:43;0.57;;;0.57;;
3667;SDS011;24099;47.102;15.440;2023-04-25T08:05:15;0.80;;;0.80;;
3667;SDS011;24099;47.102;15.440;2023-04-25T08:07:47;0.55;;;0.50;;
3667;SDS011;24099;47.102;15.440;2023-04-25T08:10:16;1.38;;;0.70;;
3667;SDS011;24099;47.102;15.440;2023-04-25T08:12:48;4.95;;;0.75;;
3667;SDS011;24099;47.102;15.440;2023-04-25T08:15:17;1.17;;;0.52;;
3667;SDS011;24099;47.102;15.440;2023-04-25T08:17:51;0.60;;;0.60;;
3667;SDS011;24099;47.102;15.440;2023-04-25T08:20:21;0.30;;;0.30;;
3667;SDS011;24099;47.102;15.440;2023-04-25T08:22:53;1.55;;;0.40;;
3667;SDS011;24099;47.102;15.440;2023-04-25T08:25:39;0.40;;;0.40;;
3667;SDS011;24099;47.102;15.440;2023-04-25T08:28:10;0.52;;;0.50;;
3667;SDS011;24099;47.102;15.440;2023-04-25T08:30:46;2.22;;;0.63;;
3667;SDS011;24099;47.102;15.440;2023-04-25T08:33:15;0.95;;;0.50;;
3667;SDS011;24099;47.102;15.440;2023-04-25T08:36:09;0.40;;;0.40;;
3667;SDS011;24099;47.102;15.440;2023-04-25T08:38:37;0.95;;;0.40;;
3667;SDS011;24099;47.102;15.440;2023-04-25T08:41:09;0.60;;;0.60;;
3667;SDS011;24099;47.102;15.440;2023-04-25T08:44:09;1.45;;;0.75;;
3667;SDS011;24099;47.102;15.440;2023-04-25T08:46:38;1.80;;;1.00;;
3667;SDS011;24099;47.102;15.440;2023-04-25T08:49:15;0.70;;;0.63;;
3667;SDS011;24099;47.102;15.440;2023-04-25T08:51:45;4.43;;;0.80;;
3667;SDS011;24099;47.102;15.440;2023-04-25T08:54:16;1.08;;;0.80;;
3667;SDS011;24099;47.102;15.440;2023-04-25T08:56:49;0.52;;;0.50;;
3667;SDS011;24099;47.102;15.440;2023-04-25T08:59:25;3.92;;;0.68;;
3667;SDS011;24099;47.102;15.440;2023-04-25T09:01:54;8.68;;;0.50;;
3667;SDS011;24099;47.102;15.440;2023-04-25T09:04:23;1.15;;;0.55;;
3667;SDS011;24099;47.102;15.440;2023-04-25T09:06:51;1.55;;;0.77;;
3667;SDS011;24099;47.102;15.440;2023-04-25T09:09:19;1.13;;;0.40;;
3667;SDS011;24099;47.102;15.440;2023-04-25T09:11:47;0.52;;;0.50;;
3667;SDS011;24099;47.102;15.440;2023-04-25T09:14:17;0.80;;;0.65;;
3667;SDS011;24099;47.102;15.440;2023-04-25T09:17:22;1.88;;;0.60;;
3667;SDS011;24099;47.102;15.440;2023-04-25T09:19:53;0.52;;;0.52;;
3667;SDS011;24099;47.102;15.440;2023-04-25T09:22:26;0.40;;;0.40;;
3667;SDS011;24099;47.102;15.440;2023-04-25T09:24:54;1.65;;;0.80;;
3667;SDS011;24099;47.102;15.440;2023-04-25T09:27:25;1.77;;;0.70;;
3667;SDS011;24099;47.102;15.440;2023-04-25T09:30:07;1.17;;;0.47;;
3667;SDS011;24099;47.102;15.440;2023-04-25T09:33:06;1.23;;;0.47;;
3667;SDS011;24099;47.102;15.440;2023-04-25T09:35:37;0.80;;;0.50;;
3667;SDS011;24099;47.102;15.440;2023-04-25T09:38:14;6.50;;;0.50;;
3667;SDS011;24099;47.102;15.440;2023-04-25T09:40:58;1.85;;;0.60;;
3667;SDS011;24099;47.102;15.440;2023-04-25T09:43:37;1.50;;;0.50;;
3667;SDS011;24099;47.102;15.440;2023-04-25T09:46:07;1.35;;;0.40;;
3667;SDS011;24099;47.102;15.440;2023-04-25T09:48:41;3.30;;;0.60;;
3667;SDS011;24099;47.102;15.440;2023-04-25T09:51:20;0.40;;;0.40;;
3667;SDS011;24099;47.102;15.440;2023-04-25T09:53:54;1.38;;;0.40;;
3667;SDS011;24099;47.102;15.440;2023-04-25T09:56:30;0.85;;;0.43;;
3667;SDS011;24099;47.102;15.440;2023-04-25T09:59:05;0.77;;;0.47;;
3667;SDS011;24099;47.102;15.440;2023-04-25T10:01:35;0.65;;;0.50;;
3667;SDS011;24099;47.102;15.440;2023-04-25T10:04:13;1.05;;;0.50;;
3667;SDS011;24099;47.102;15.440;2023-04-25T10:06:58;0.60;;;0.47;;
3667;SDS011;24099;47.102;15.440;2023-04-25T10:09:30;0.38;;;0.38;;
3667;SDS011;24099;47.102;15.440;2023-04-25T10:12:00;2.67;;;0.50;;
3667;SDS011;24099;47.102;15.440;2023-04-25T10:14:29;1.35;;;0.60;;
3667;SDS011;24099;47.102;15.440;2023-04-25T10:16:58;0.30;;;0.30;;
3667;SDS011;24099;47.102;15.440;2023-04-25T10:19:28;1.25;;;0.60;;
3667;SDS011;24099;47.102;15.440;2023-04-25T10:21:58;1.00;;;0.60;;
3667;SDS011;24099;47.102;15.440;2023-04-25T10:24:32;0.43;;;0.40;;
3667;SDS011;24099;47.102;15.440;2023-04-25T10:27:02;0.73;;;0.50;;
3667;SDS011;24099;47.102;15.440;2023-04-25T10:29:30;0.52;;;0.40;;
3667;SDS011;24099;47.102;15.440;2023-04-25T10:32:32;0.68;;;0.35;;
3667;SDS011;24099;47.102;15.440;2023-04-25T10:35:11;1.67;;;0.50;;
3667;SDS011;24099;47.102;15.440;2023-04-25T10:40:29;0.35;;;0.35;;
3667;SDS011;24099;47.102;15.440;2023-04-25T10:46:14;0.30;;;0.30;;
3667;SDS011;24099;47.102;15.440;2023-04-25T10:48:56;0.70;;;0.50;;
3667;SDS011;24099;47.102;15.440;2023-04-25T10:51:34;0.63;;;0.30;;
3667;SDS011;24099;47.102;15.440;2023-04-25T10:54:04;0.90;;;0.50;;
3667;SDS011;24099;47.102;15.440;2023-04-25T10:56:36;1.30;;;0.50;;
3667;SDS011;24099;47.102;15.440;2023-04-25T10:59:06;0.43;;;0.43;;
3667;SDS011;24099;47.102;15.440;2023-04-25T11:01:36;0.90;;;0.55;;
3667;SDS011;24099;47.102;15.440;2023-04-25T11:04:06;2.75;;;0.50;;
3667;SDS011;24099;47.102;15.440;2023-04-25T11:06:50;0.40;;;0.40;;
3667;SDS011;24099;47.102;15.440;2023-04-25T11:09:27;0.30;;;0.30;;
3667;SDS011;24099;47.102;15.440;2023-04-25T11:11:55;1.88;;;0.30;;
3667;SDS011;24099;47.102;15.440;2023-04-25T11:14:24;2.70;;;0.40;;
3667;SDS011;24099;47.102;15.440;2023-04-25T11:17:03;1.50;;;0.38;;
3667;SDS011;24099;47.102;15.440;2023-04-25T11:19:32;1.88;;;0.70;;
3667;SDS011;24099;47.102;15.440;2023-04-25T11:22:04;0.40;;;0.40;;
3667;SDS011;24099;47.102;15.440;2023-04-25T11:24:39;0.32;;;0.32;;
3667;SDS011;24099;47.102;15.440;2023-04-25T11:27:08;0.63;;;0.30;;
3667;SDS011;24099;47.102;15.440;2023-04-25T11:29:36;0.20;;;0.20;;
3667;SDS011;24099;47.102;15.440;2023-04-25T11:32:07;0.40;;;0.30;;
3667;SDS011;24099;47.102;15.440;2023-04-25T11:34:36;1.15;;;0.40;;
3667;SDS011;24099;47.102;15.440;2023-04-25T11:37:06;1.73;;;0.40;;
3667;SDS011;24099;47.102;15.440;2023-04-25T11:39:42;0.30;;;0.30;;
3667;SDS011;24099;47.102;15.440;2023-04-25T11:42:13;0.30;;;0.30;;
3667;SDS011;24099;47.102;15.440;2023-04-25T11:44:41;3.20;;;0.80;;
3667;SDS011;24099;47.102;15.440;2023-04-25T11:47:09;2.60;;;0.38;;
3667;SDS011;24099;47.102;15.440;2023-04-25T11:49:38;0.70;;;0.35;;
3667;SDS011;24099;47.102;15.440;2023-04-25T11:52:08;0.50;;;0.50;;
3667;SDS011;24099;47.102;15.440;2023-04-25T11:54:39;3.40;;;0.60;;
3667;SDS011;24099;47.102;15.440;2023-04-25T11:57:13;1.95;;;0.50;;
3667;SDS011;24099;47.102;15.440;2023-04-25T11:59:45;0.20;;;0.20;;
3667;SDS011;24099;47.102;15.440;2023-04-25T12:02:23;0.32;;;0.32;;
3667;SDS011;24099;47.102;15.440;2023-04-25T12:04:52;0.65;;;0.40;;
3667;SDS011;24099;47.102;15.440;2023-04-25T12:07:28;1.20;;;0.40;;
3667;SDS011;24099;47.102;15.440;2023-04-25T12:09:57;1.05;;;0.43;;
3667;SDS011;24099;47.102;15.440;2023-04-25T12:12:26;0.45;;;0.40;;
3667;SDS011;24099;47.102;15.440;2023-04-25T12:15:07;2.05;;;0.40;;
3667;SDS011;24099;47.102;15.440;2023-04-25T12:17:38;0.68;;;0.40;;
3667;SDS011;24099;47.102;15.440;2023-04-25T12:20:09;1.48;;;0.30;;
3667;SDS011;24099;47.102;15.440;2023-04-25T12:22:41;2.70;;;0.40;;
3667;SDS011;24099;47.102;15.440;2023-04-25T12:25:12;0.50;;;0.32;;
3667;SDS011;24099;47.102;15.440;2023-04-25T12:27:40;0.60;;;0.40;;
3667;SDS011;24099;47.102;15.440;2023-04-25T12:30:11;0.20;;;0.20;;
3667;SDS011;24099;47.102;15.440;2023-04-25T12:32:39;0.55;;;0.40;;
3667;SDS011;24099;47.102;15.440;2023-04-25T12:35:07;0.52;;;0.50;;
3667;SDS011;24099;47.102;15.440;2023-04-25T12:37:35;0.22;;;0.22;;
3667;SDS011;24099;47.102;15.440;2023-04-25T12:40:06;0.73;;;0.43;;
3667;SDS011;24099;47.102;15.440;2023-04-25T12:42:35;0.30;;;0.30;;
3667;SDS011;24099;47.102;15.440;2023-04-25T12:45:03;0.43;;;0.43;;
3667;SDS011;24099;47.102;15.440;2023-04-25T12:47:31;0.22;;;0.22;;
3667;SDS011;24099;47.102;15.440;2023-04-25T12:50:06;1.15;;;0.50;;
3667;SDS011;24099;47.102;15.440;2023-04-25T12:52:34;1.92;;;0.45;;
3667;SDS011;24099;47.102;15.440;2023-04-25T12:55:02;0.45;;;0.43;;
3667;SDS011;24099;47.102;15.440;2023-04-25T12:57:33;0.60;;;0.30;;
3667;SDS011;24099;47.102;15.440;2023-04-25T13:00:08;2.78;;;0.60;;
3667;SDS011;24099;47.102;15.440;2023-04-25T13:02:40;0.73;;;0.40;;
3667;SDS011;24099;47.102;15.440;2023-04-25T13:05:08;0.30;;;0.30;;
3667;SDS011;24099;47.102;15.440;2023-04-25T13:07:41;0.25;;;0.25;;
3667;SDS011;24099;47.102;15.440;2023-04-25T13:10:10;0.25;;;0.20;;
3667;SDS011;24099;47.102;15.440;2023-04-25T13:12:44;1.65;;;0.30;;
3667;SDS011;24099;47.102;15.440;2023-04-25T13:15:14;0.52;;;0.52;;
3667;SDS011;24099;47.102;15.440;2023-04-25T13:17:42;0.20;;;0.20;;
3667;SDS011;24099;47.102;15.440;2023-04-25T13:20:10;0.40;;;0.30;;
3667;SDS011;24099;47.102;15.440;2023-04-25T13:22:40;0.20;;;0.20;;
3667;SDS011;24099;47.102;15.440;2023-04-25T13:25:08;0.20;;;0.20;;
3667;SDS011;24099;47.102;15.440;2023-04-25T13:27:38;0.30;;;0.30;;
3667;SDS011;24099;47.102;15.440;2023-04-25T13:30:06;0.35;;;0.35;;
3667;SDS011;24099;47.102;15.440;2023-04-25T13:32:34;1.35;;;0.30;;
3667;SDS011;24099;47.102;15.440;2023-04-25T13:35:03;0.10;;;0.10;;
3667;SDS011;24099;47.102;15.440;2023-04-25T13:37:32;0.65;;;0.30;;
3667;SDS011;24099;47.102;15.440;2023-04-25T13:40:01;2.97;;;0.43;;
3667;SDS011;24099;47.102;15.440;2023-04-25T13:42:32;0.30;;;0.30;;
3667;SDS011;24099;47.102;15.440;2023-04-25T13:45:00;2.65;;;0.35;;
3667;SDS011;24099;47.102;15.440;2023-04-25T13:47:28;0.50;;;0.40;;
3667;SDS011;24099;47.102;15.440;2023-04-25T13:49:57;0.20;;;0.20;;
3667;SDS011;24099;47.102;15.440;2023-04-25T13:52:28;0.30;;;0.30;;
3667;SDS011;24099;47.102;15.440;2023-04-25T13:54:56;0.60;;;0.60;;
3667;SDS011;24099;47.102;15.440;2023-04-25T13:57:24;1.50;;;0.50;;
3667;SDS011;24099;47.102;15.440;2023-04-25T13:59:53;0.38;;;0.38;;
3667;SDS011;24099;47.102;15.440;2023-04-25T14:02:22;1.35;;;0.35;;
3667;SDS011;24099;47.102;15.440;2023-04-25T14:04:51;0.45;;;0.30;;
3667;SDS011;24099;47.102;15.440;2023-04-25T14:07:19;1.33;;;0.38;;
3667;SDS011;24099;47.102;15.440;2023-04-25T14:09:47;1.17;;;0.40;;
3667;SDS011;24099;47.102;15.440;2023-04-25T14:12:15;0.47;;;0.32;;
3667;SDS011;24099;47.102;15.440;2023-04-25T14:14:43;1.98;;;0.52;;
3667;SDS011;24099;47.102;15.440;2023-04-25T14:17:12;2.70;;;0.55;;
3667;SDS011;24099;47.102;15.440;2023-04-25T14:19:40;0.25;;;0.25;;
3667;SDS011;24099;47.102;15.440;2023-04-25T14:22:10;1.00;;;0.47;;
3667;SDS011;24099;47.102;15.440;2023-04-25T14:24:38;5.20;;;0.60;;
3667;SDS011;24099;47.102;15.440;2023-04-25T14:27:07;1.27;;;0.50;;
3667;SDS011;24099;47.102;15.440;2023-04-25T14:29:35;0.40;;;0.40;;
3667;SDS011;24099;47.102;15.440;2023-04-25T14:32:03;0.68;;;0.50;;
3667;SDS011;24099;47.102;15.440;2023-04-25T14:34:41;0.50;;;0.50;;
3667;SDS011;24099;47.102;15.440;2023-04-25T14:37:09;1.88;;;0.43;;
3667;SDS011;24099;47.102;15.440;2023-04-25T14:39:37;0.30;;;0.30;;
3667;SDS011;24099;47.102;15.440;2023-04-25T14:42:04;2.55;;;0.30;;
3667;SDS011;24099;47.102;15.440;2023-04-25T14:44:38;0.20;;;0.20;;
3667;SDS011;24099;47.102;15.440;2023-04-25T14:47:20;0.30;;;0.30;;
3667;SDS011;24099;47.102;15.440;2023-04-25T14:49:52;1.00;;;0.30;;
3667;SDS011;24099;47.102;15.440;2023-04-25T14:52:20;0.30;;;0.30;;
3667;SDS011;24099;47.102;15.440;2023-04-25T14:54:48;0.52;;;0.40;;
3667;SDS011;24099;47.102;15.440;2023-04-25T14:57:16;0.20;;;0.20;;
3667;SDS011;24099;47.102;15.440;2023-04-25T14:59:48;0.45;;;0.30;;
3667;SDS011;24099;47.102;15.440;2023-04-25T15:02:23;0.40;;;0.30;;
3667;SDS011;24099;47.102;15.440;2023-04-25T15:04:52;2.72;;;0.50;;
3667;SDS011;24099;47.102;15.440;2023-04-25T15:07:21;0.30;;;0.30;;
3667;SDS011;24099;47.102;15.440;2023-04-25T15:09:53;0.20;;;0.20;;
3667;SDS011;24099;47.102;15.440;2023-04-25T15:12:24;1.25;;;0.40;;
3667;SDS011;24099;47.102;15.440;2023-04-25T15:14:53;0.80;;;0.40;;
3667;SDS011;24099;47.102;15.440;2023-04-25T15:17:21;0.57;;;0.45;;
3667;SDS011;24099;47.102;15.440;2023-04-25T15:19:49;0.30;;;0.20;;
3667;SDS011;24099;47.102;15.440;2023-04-25T15:22:21;1.85;;;0.30;;
3667;SDS011;24099;47.102;15.440;2023-04-25T15:24:49;0.30;;;0.30;;
3667;SDS011;24099;47.102;15.440;2023-04-25T15:27:18;0.38;;;0.25;;